CRV2 weather

Barrie (Royal Victoria Hospital) Heliport
Barrie, Ontario, Canada

Public forecast

Using degrees Celsius for public forecast. Weather courtesy of forecast.io.

Closest aviation weather report (METAR) to Barrie (Royal Victoria Hospital) Heliport

Closest report is CFB Borden, 13.6 nm (25.2 km) SW. Retrieved 2019/10/22 10:00 UTC (22 minutes ago):

CYBN 221000Z AUTO 16008KT 9SM OVC007 OVC029 13/12 A2969 RMK SLP056

Closest aviation forecast (TAF) to Barrie (Royal Victoria Hospital) Heliport

Closest forecast is CFB Borden, 13.6 nm (25.2 km) SW. Retrieved 2019/10/22 10:18 UTC (4 minutes ago):

TAF TAF CYBN 221015Z 2210/2222 16010KT P6SM -RA FEW007 OVC030 TEMPO 2210/2215 4SM -RA BR OVC007 BECMG 2210/2212 17010G20KT FM221500 20012G22KT P6SM BKN015 OVC040 TEMPO 2215/2218 P6SM -SHRA FM221800 19010G20KT P6SM BKN040 TEMPO 2218/2220 P6SM -SHRA RMK FCST BASED ON AUTO OBS NXT FCST BY 221200Z